thinkstockphotos.jp alexa rank chart, thinkstockphotos.jp alexa rank daily changes

thinkstockphotos.jp alexa rank chart, thinkstockphotos.jp alexa rank daily changes

thinkstockphotos.jp
Actual rank:
124 245

RANK HISTORY

Date Rank Diff
2017/01/22 124 245 -4 625
2017/01/21 128 870 -6 344
2017/01/20 135 214 -3 393
2017/01/19 138 607 -18 280
2017/01/18 156 887 -18 459
2017/01/17 175 346 -2 151
2017/01/16 177 497 -7 156
2017/01/15 184 653 -8
2017/01/14 184 661 -10 581
2017/01/13 195 242 -10 845
2017/01/12 206 087 -10 598
2017/01/11 216 685 +17 784
2017/01/10 198 901 +6 400
2017/01/09 192 501 +9 638
2017/01/08 182 863 +8 164
2017/01/07 174 699 -14 692
2017/01/06 189 391 -92
2017/01/05 189 483 +1 191
2017/01/04 188 292 +16 827
2017/01/03 171 465 +7 824
2017/01/02 163 641 +3 811
2017/01/01 159 830 -6 866
2016/12/31 166 696 +10 785
2016/12/30 155 911 +14 107
2016/12/29 141 804 -390
2016/12/28 142 194 -12 116
2016/12/27 154 310 +4 922
2016/12/26 149 388 +22 985
2016/12/25 126 403 -377
2016/12/24 126 780 +2 339
2016/12/23 124 441 +2 034
2016/12/22 122 407 -1 781
2016/12/21 124 188 -297
2016/12/20 124 485 +1 865
2016/12/19 122 620 +3 486
2016/12/18 119 134 +1 983
2016/12/17 117 151 +5 783
2016/12/16 111 368 +2 377
2016/12/15 108 991 -1 314
2016/12/14 110 305 -4 345
2016/12/13 114 650 +4 754
2016/12/12 109 896 +3 956
2016/12/11 105 940 +380
2016/12/10 105 560 -2 649
2016/12/09 108 209 -368
2016/12/08 108 577 -5 558
2016/12/07 114 135 +1 555
2016/12/06 112 580 -76
2016/12/05 112 656 -495
2016/12/04 113 151 -4 288
2016/12/02 117 439 +1 324
2016/12/01 116 115 -9 652
2016/11/30 125 767 -6 130
2016/11/29 131 897 +7 747
2016/11/28 124 150 +2 288
2016/11/27 121 862 +2 625
2016/11/26 119 237 -13 188
2016/11/25 132 425 -509
2016/11/24 132 934 -3 511
2016/11/23 136 445

WIDGET FOR YOUR SITE

DOMAINS WITH THE NEAREST RANK

Domain Rank
blowfishunlocks.com 124 240
sebascelis.com 124 241
august.com 124 242
sonokinetic.net 124 243
hidden247.com 124 244
thinkstockphotos.jp 124 245
job-riya.com 124 246
georgiaaquarium.org 124 247
durangoherald.com 124 248
pmjdy.gov.in 124 249
inteks-auto.ru 124 250

DOMAINS WITH THE NEAREST RANK BY TLD .jp

Domain Rank
zoho.jp 124 021
aeonmobile.jp 124 045
kororo.jp 124 133
kabuki-bito.jp 124 158
mizukinana.jp 124 191
thinkstockphotos.jp 124 245
akibare-hp.jp 124 313
sanyo-i.jp 124 330
gamingpcs.jp 124 481
originalprint.jp 124 493
ec-sites.jp 124 516